Time;durP1;ratioP1;P1;durP2;ratioP2;P2;SDS_P1;SDS_P2;PMS_P1;PMS_P2;Temp;Humidity;BMP_temperature;BMP_pressure;BME280_temperature;BME280_humidity;BME280_pressure;Samples;Min_cycle;Max_cycle;Signal;HPM_P1;HPM_P2
2022/11/02 00:00:31;;;;;;;9.32;5.75;;;12.10;83.10;;;10.58;100.00;96593.06;4842701;28;20357;-69
2022/11/02 00:02:57;;;;;;;14.98;6.05;;;12.00;83.10;;;10.57;100.00;96588.81;4838098;28;20323;-68
2022/11/02 00:05:23;;;;;;;10.15;6.05;;;12.00;83.20;;;10.56;100.00;96589.81;4856644;28;20313;-68
2022/11/02 00:07:55;;;;;;;9.98;6.10;;;12.00;83.10;;;10.54;100.00;96587.34;4861813;28;20350;-70
2022/11/02 00:10:22;;;;;;;9.57;5.88;;;12.00;82.90;;;10.51;100.00;96592.97;4865517;28;20871;-69
2022/11/02 00:12:49;;;;;;;10.93;6.07;;;12.00;83.00;;;10.51;100.00;96597.41;4856884;28;20355;-67
2022/11/02 00:15:15;;;;;;;9.70;5.95;;;12.00;82.80;;;10.48;100.00;96595.13;4846084;28;20610;-69
2022/11/02 00:17:47;;;;;;;9.52;6.35;;;11.90;82.80;;;10.44;100.00;96589.41;4848135;28;20796;-69
2022/11/02 00:20:15;;;;;;;11.05;6.30;;;11.90;82.50;;;10.40;100.00;96593.38;4847588;28;20283;-67
2022/11/02 00:22:42;;;;;;;13.18;6.60;;;11.90;82.40;;;10.36;100.00;96595.53;4861464;28;20811;-69
2022/11/02 00:25:08;;;;;;;10.85;6.25;;;11.80;82.30;;;10.32;100.00;96588.19;4868165;28;20428;-67
2022/11/02 00:27:34;;;;;;;11.05;6.00;;;11.70;82.40;;;10.30;100.00;96601.50;4832909;28;20310;-69
2022/11/02 00:30:00;;;;;;;8.55;6.00;;;11.70;82.20;;;10.26;100.00;96597.59;4846033;28;20481;-68
2022/11/02 00:32:26;;;;;;;9.55;6.25;;;11.70;82.10;;;10.24;100.00;96598.75;4873302;28;20372;-67
2022/11/02 00:34:52;;;;;;;8.52;5.90;;;11.70;82.20;;;10.22;100.00;96598.94;4829981;28;20419;-66
2022/11/02 00:37:18;;;;;;;8.88;5.72;;;11.70;82.20;;;10.21;100.00;96601.75;4845595;28;20412;-69
2022/11/02 00:39:45;;;;;;;9.00;5.30;;;11.70;82.20;;;10.19;100.00;96601.06;4844211;28;20415;-66
2022/11/02 00:42:11;;;;;;;12.77;6.28;;;11.60;82.10;;;10.16;100.00;96602.19;4844692;28;20321;-66
2022/11/02 00:44:37;;;;;;;8.07;5.65;;;11.60;82.20;;;10.14;100.00;96612.06;4860815;28;20217;-67
2022/11/02 00:47:06;;;;;;;8.77;5.55;;;11.60;82.20;;;10.11;100.00;96601.91;4835843;28;20355;-68
2022/11/02 00:49:32;;;;;;;9.43;5.82;;;11.60;82.20;;;10.09;100.00;96609.16;4841239;28;20552;-67
2022/11/02 00:52:05;;;;;;;8.02;5.13;;;11.50;82.20;;;10.05;100.00;96603.44;4855607;28;20851;-67
2022/11/02 00:54:31;;;;;;;11.68;5.50;;;11.50;82.20;;;10.01;100.00;96602.16;4862727;28;20448;-68
2022/11/02 00:56:57;;;;;;;9.95;5.38;;;11.50;82.30;;;9.97;100.00;96605.28;4858380;28;20505;-67
2022/11/02 00:59:23;;;;;;;11.60;6.07;;;11.40;82.40;;;9.96;100.00;96607.09;4849846;28;20220;-68
2022/11/02 01:01:49;;;;;;;8.05;5.45;;;11.40;82.30;;;9.94;100.00;96605.63;4864360;28;20428;-68
2022/11/02 01:04:18;;;;;;;11.32;5.60;;;11.40;82.30;;;9.91;100.00;96612.03;4832519;28;20611;-68
2022/11/02 01:06:44;;;;;;;8.77;5.53;;;11.40;82.20;;;9.90;100.00;96615.66;4882404;28;20712;-67
2022/11/02 01:09:11;;;;;;;10.00;5.43;;;11.40;82.30;;;9.87;100.00;96615.19;4851982;28;20464;-67
2022/11/02 01:11:37;;;;;;;11.32;5.53;;;11.40;82.30;;;9.86;100.00;96624.06;4849534;28;20320;-68
2022/11/02 01:14:03;;;;;;;10.65;5.78;;;11.30;82.30;;;9.83;100.00;96612.91;4855221;28;20913;-69
2022/11/02 01:16:29;;;;;;;10.43;5.68;;;11.30;82.70;;;9.80;100.00;96617.69;4833861;28;20439;-67
2022/11/02 01:18:55;;;;;;;8.13;5.47;;;11.30;82.40;;;9.79;100.00;96621.31;4893226;28;20345;-67
2022/11/02 01:21:21;;;;;;;9.93;5.60;;;11.30;82.50;;;9.77;100.00;96616.22;4855533;28;20349;-66
2022/11/02 01:23:48;;;;;;;8.10;5.72;;;11.30;82.60;;;9.74;100.00;96616.56;4869550;28;20404;-66
2022/11/02 01:26:14;;;;;;;9.40;5.53;;;11.20;82.80;;;9.71;100.00;96619.50;4876738;28;20366;-66
2022/11/02 01:28:46;;;;;;;7.82;5.22;;;11.10;82.50;;;9.70;100.00;96615.25;4852438;28;20388;-67
2022/11/02 01:31:13;;;;;;;9.77;5.85;;;11.10;82.70;;;9.68;100.00;96616.41;4874777;28;20701;-67
2022/11/02 01:33:45;;;;;;;11.65;5.70;;;11.20;82.60;;;9.64;100.00;96610.69;4847538;28;20362;-66
2022/11/02 01:36:13;;;;;;;9.77;6.05;;;11.10;82.60;;;9.63;100.00;96614.31;4857675;28;20522;-66
2022/11/02 01:38:39;;;;;;;10.55;5.82;;;11.10;83.50;;;9.62;100.00;96617.91;4880576;28;20716;-67
2022/11/02 01:41:05;;;;;;;8.48;5.50;;;11.10;83.50;;;9.61;100.00;96616.28;4851733;28;20491;-66
2022/11/02 01:43:33;;;;;;;11.80;5.38;;;11.10;83.40;;;9.61;100.00;96618.09;4847272;28;20542;-67
2022/11/02 01:46:11;;;;;;;10.02;5.68;;;11.10;83.20;;;9.60;100.00;96614.66;4851365;28;20332;-67
2022/11/02 01:48:43;;;;;;;11.18;6.13;;;11.10;83.50;;;9.58;100.00;96615.81;4889004;28;20356;-68
2022/11/02 01:51:22;;;;;;;9.05;6.30;;;11.10;83.30;;;9.56;100.00;96623.88;4865085;28;20369;-66
2022/11/02 01:53:49;;;;;;;8.68;5.70;;;11.00;83.80;;;9.55;100.00;96621.41;4861941;28;20426;-67
2022/11/02 01:56:17;;;;;;;9.60;5.50;;;11.00;83.50;;;9.54;100.00;96612.72;4863378;28;20534;-67
2022/11/02 01:58:45;;;;;;;10.80;5.70;;;11.00;83.50;;;9.52;100.00;96622.56;4864374;28;20444;-66
2022/11/02 02:01:14;;;;;;;10.52;6.28;;;11.00;83.40;;;9.50;100.00;96614.00;4866285;28;20443;-67
2022/11/02 02:03:41;;;;;;;6.80;5.53;;;11.00;83.40;;;9.47;100.00;96614.34;4862112;28;20298;-68
2022/11/02 02:06:10;;;;;;;8.48;5.00;;;11.00;83.10;;;9.45;100.00;96611.91;4844792;28;20857;-66
2022/11/02 02:08:41;;;;;;;10.43;5.25;;;10.90;83.10;;;9.44;100.00;96619.94;4829457;28;20326;-68
2022/11/02 02:11:33;;;;;;;7.85;5.00;;;11.00;83.00;;;9.42;100.00;96628.00;4848196;28;20432;-67
2022/11/02 02:14:20;;;;;;;7.05;5.07;;;10.90;83.20;;;9.43;100.00;96626.19;4861674;28;20404;-68
2022/11/02 02:17:17;;;;;;;10.00;5.00;;;11.00;83.60;;;9.43;100.00;96627.00;4849980;28;20316;-68
2022/11/02 02:20:00;;;;;;;9.07;5.28;;;10.90;83.90;;;9.43;100.00;96640.13;4878500;28;20395;-67
2022/11/02 02:23:00;;;;;;;8.82;5.32;;;10.90;83.90;;;9.42;100.00;96638.50;4881447;28;20623;-67
2022/11/02 02:25:53;;;;;;;7.28;5.28;;;10.90;84.00;;;9.41;100.00;96636.03;4875933;28;20372;-67
2022/11/02 02:28:51;;;;;;;6.82;5.28;;;10.90;83.90;;;9.41;100.00;96641.28;4870817;28;20408;-66
2022/11/02 02:31:24;;;;;;;8.65;5.25;;;10.90;83.80;;;9.40;100.00;96635.22;4853258;28;20410;-67
2022/11/02 02:34:14;;;;;;;7.50;5.57;;;10.90;83.80;;;9.42;100.00;96637.69;4879596;28;20735;-67
2022/11/02 02:36:45;;;;;;;7.38;4.78;;;10.90;83.90;;;9.40;100.00;96637.03;4875909;28;21007;-68
2022/11/02 02:39:38;;;;;;;8.48;5.32;;;10.90;84.20;;;9.38;100.00;96636.38;4876335;28;20578;-67
2022/11/02 02:42:19;;;;;;;6.72;4.53;;;10.80;84.40;;;9.37;100.00;96629.50;4865573;28;20436;-68
2022/11/02 02:44:54;;;;;;;7.95;4.95;;;10.90;84.30;;;9.36;100.00;96626.06;4835509;28;20564;-67
2022/11/02 02:47:22;;;;;;;6.88;4.70;;;10.90;84.20;;;9.37;100.00;96640.00;4864920;28;20380;-68
2022/11/02 02:49:52;;;;;;;8.18;4.85;;;10.90;84.00;;;9.35;100.00;96648.03;4850010;28;20445;-67
2022/11/02 02:52:18;;;;;;;8.88;5.30;;;10.80;84.50;;;9.33;100.00;96643.94;4854076;28;20325;-67
2022/11/02 02:54:45;;;;;;;10.07;4.78;;;10.80;84.80;;;9.33;100.00;96647.41;4879050;28;20400;-68
2022/11/02 02:57:39;;;;;;;9.27;5.15;;;10.80;85.10;;;9.36;100.00;96638.34;4847073;28;20370;-68
2022/11/02 03:00:15;;;;;;;6.93;4.95;;;10.90;84.90;;;9.39;100.00;96638.03;4865135;28;20201;-67
2022/11/02 03:02:41;;;;;;;9.73;4.72;;;11.00;84.80;;;9.42;100.00;96635.88;4911205;23;22019;-70
2022/11/02 03:05:40;;;;;;;9.20;5.38;;;11.10;84.70;;;9.48;100.00;96637.00;4855466;28;20436;-70
2022/11/02 03:08:12;;;;;;;7.65;4.95;;;11.10;84.80;;;9.49;100.00;96646.50;4822234;28;20599;-71
2022/11/02 03:10:50;;;;;;;6.85;5.03;;;11.10;84.90;;;9.55;100.00;96647.66;4834622;28;20599;-71
2022/11/02 03:13:36;;;;;;;6.82;5.15;;;11.10;84.70;;;9.57;100.00;96661.44;4871167;28;20754;-70
2022/11/02 03:16:27;;;;;;;10.35;4.72;;;11.10;84.70;;;9.57;100.00;96657.00;4902742;28;20300;-70
2022/11/02 03:19:06;;;;;;;15.50;8.02;;;11.20;84.70;;;9.60;100.00;96656.66;4874434;28;20435;-71
2022/11/02 03:21:43;;;;;;;21.23;15.32;;;11.20;84.60;;;9.62;100.00;96659.94;4878021;28;20364;-70
2022/11/02 03:24:18;;;;;;;16.48;10.25;;;11.20;84.50;;;9.64;100.00;96665.84;4894206;28;20751;-71
2022/11/02 03:27:38;;;;;;;8.82;5.72;;;11.20;84.50;;;9.67;100.00;96673.38;4856880;28;20569;-70
2022/11/02 03:30:15;;;;;;;29.67;18.67;;;11.30;84.40;;;9.68;100.00;96669.78;4810976;29;20330;-70
2022/11/02 03:33:16;;;;;;;13.60;10.23;;;11.30;84.70;;;9.70;100.00;96667.78;4874610;28;20499;-70
2022/11/02 03:36:18;;;;;;;10.65;6.32;;;11.40;84.20;;;9.71;100.00;96668.59;4860022;28;20322;-70
2022/11/02 03:39:01;;;;;;;7.80;4.72;;;11.40;84.20;;;9.68;100.00;96664.50;4885281;28;20326;-71
2022/11/02 03:41:27;;;;;;;7.93;4.63;;;11.30;83.70;;;9.67;100.00;96668.13;4852235;28;20399;-70
2022/11/02 03:43:58;;;;;;;8.32;5.25;;;11.20;83.60;;;9.66;100.00;96663.88;4872079;28;20169;-70
2022/11/02 03:46:24;;;;;;;6.95;5.05;;;11.20;83.40;;;9.65;100.00;96672.75;4877671;28;20706;-70
2022/11/02 03:48:50;;;;;;;7.90;4.57;;;11.20;83.30;;;9.65;100.00;96674.53;4859353;28;20696;-70
2022/11/02 03:51:20;;;;;;;9.02;4.47;;;11.20;83.30;;;9.63;100.00;96679.97;4889954;28;20497;-70
2022/11/02 03:54:04;;;;;;;9.15;4.68;;;11.20;83.10;;;9.60;100.00;96688.19;4873612;28;20368;-70
2022/11/02 03:56:44;;;;;;;8.77;4.60;;;11.20;82.90;;;9.58;100.00;96695.41;4869249;28;20857;-70
2022/11/02 03:59:10;;;;;;;6.68;4.65;;;11.20;83.00;;;9.57;100.00;96693.78;4866748;28;20411;-70
2022/11/02 04:01:39;;;;;;;10.32;4.47;;;11.10;83.10;;;9.55;100.00;96689.69;4850479;28;20424;-72
2022/11/02 04:04:05;;;;;;;6.80;4.47;;;11.10;83.10;;;9.52;100.00;96685.59;4843945;28;20707;-72
2022/11/02 04:06:32;;;;;;;15.73;10.88;;;11.10;83.30;;;9.51;100.00;96694.47;4854530;28;20300;-71
2022/11/02 04:08:58;;;;;;;10.52;6.90;;;11.10;83.50;;;9.50;100.00;96698.03;4874127;28;20361;-72
2022/11/02 04:19:45;;;;;;;7.28;3.97;;;11.00;84.20;;;9.41;100.00;96684.13;4876443;28;20291;-72
2022/11/02 04:25:17;;;;;;;5.80;4.00;;;10.90;83.80;;;9.37;100.00;96684.63;4873440;28;20207;-72
2022/11/02 04:27:45;;;;;;;13.95;7.28;;;10.90;83.50;;;9.31;100.00;96677.44;4856633;28;20598;-70
2022/11/02 04:30:15;;;;;;;16.48;10.85;;;10.90;83.40;;;9.30;100.00;96675.78;4867887;28;20537;-71
2022/11/02 04:35:27;;;;;;;15.68;11.13;;;10.80;84.30;;;9.26;100.00;96671.84;4883174;28;20249;-70
2022/11/02 04:40:38;;;;;;;10.43;6.85;;;10.80;84.10;;;9.22;100.00;96668.72;4888453;28;20479;-71
2022/11/02 04:43:05;;;;;;;9.52;4.78;;;10.70;84.00;;;9.18;100.00;96665.63;4855410;28;20530;-71
2022/11/02 04:45:31;;;;;;;5.60;4.13;;;10.80;84.00;;;9.15;100.00;96659.88;4853500;28;20322;-71
2022/11/02 04:48:07;;;;;;;8.93;4.63;;;10.70;84.20;;;9.15;100.00;96663.34;4866812;28;20436;-71
2022/11/02 04:50:35;;;;;;;7.75;4.40;;;10.70;84.30;;;9.11;100.00;96656.78;4855195;28;20381;-70
2022/11/02 04:53:03;;;;;;;7.13;4.78;;;10.60;84.80;;;9.09;100.00;96653.50;4873031;28;20306;-70
2022/11/02 04:55:29;;;;;;;10.25;5.07;;;10.60;84.70;;;9.07;100.00;96652.84;4882935;28;20410;-70
2022/11/02 04:57:55;;;;;;;8.50;5.05;;;10.60;84.90;;;9.05;100.00;96667.94;4906666;28;20292;-71
2022/11/02 05:00:22;;;;;;;9.20;5.50;;;10.60;85.00;;;9.03;100.00;96664.63;4840215;28;20788;-70
2022/11/02 05:02:48;;;;;;;10.05;5.45;;;10.50;85.90;;;8.99;100.00;96670.38;4894557;28;20185;-70
2022/11/02 05:05:15;;;;;;;9.90;5.72;;;10.40;86.60;;;8.98;100.00;96666.94;4937631;28;20710;-71
2022/11/02 05:07:42;;;;;;;8.52;5.30;;;10.40;87.10;;;8.99;100.00;96675.63;4937972;28;20042;-70
2022/11/02 05:10:08;;;;;;;8.90;5.70;;;10.50;87.10;;;8.99;100.00;96679.09;4921432;28;20576;-71
2022/11/02 05:12:35;;;;;;;8.50;5.78;;;10.50;87.00;;;9.00;100.00;96677.28;4854740;28;20359;-71
2022/11/02 05:15:02;;;;;;;10.98;5.93;;;10.50;87.00;;;9.00;100.00;96680.72;4871985;28;20360;-70
2022/11/02 05:17:28;;;;;;;10.55;6.03;;;10.50;86.60;;;9.01;100.00;96677.09;4869525;28;20361;-71
2022/11/02 05:19:54;;;;;;;9.23;6.38;;;10.50;86.30;;;9.00;100.00;96675.47;4872061;28;20354;-71
2022/11/02 05:22:20;;;;;;;11.50;5.80;;;10.50;86.50;;;9.01;100.00;96684.97;4852921;28;20399;-71
2022/11/02 05:24:47;;;;;;;8.00;5.70;;;10.60;86.10;;;9.01;100.00;96692.84;4869681;28;20455;-72
2022/11/02 05:27:13;;;;;;;10.10;5.80;;;10.60;85.90;;;8.99;100.00;96694.81;4871564;28;20485;-71
2022/11/02 05:29:39;;;;;;;9.40;5.65;;;10.50;85.50;;;8.99;100.00;96700.06;4854649;28;20401;-71
2022/11/02 05:32:05;;;;;;;12.82;6.40;;;10.60;85.50;;;8.96;100.00;96697.78;4887328;28;20810;-71
2022/11/02 05:34:32;;;;;;;10.60;6.75;;;10.50;86.00;;;8.94;100.00;96697.13;4852867;28;20494;-70
2022/11/02 05:36:58;;;;;;;14.63;7.25;;;10.50;86.00;;;8.92;100.00;96693.03;4855945;28;20465;-70
2022/11/02 05:39:24;;;;;;;11.75;5.80;;;10.40;86.10;;;8.87;100.00;96691.72;4854767;28;20506;-72
2022/11/02 05:41:50;;;;;;;12.32;6.53;;;10.40;86.40;;;8.83;100.00;96689.59;4861327;28;20358;-71
2022/11/02 05:44:16;;;;;;;16.65;10.05;;;10.30;86.60;;;8.81;100.00;96687.09;4885670;28;20536;-70
2022/11/02 05:46:42;;;;;;;30.00;18.88;;;10.30;86.60;;;8.82;100.00;96687.94;4845160;28;20333;-70
2022/11/02 05:49:09;;;;;;;28.88;19.42;;;10.40;86.70;;;8.82;100.00;96693.16;4870840;28;20848;-73
2022/11/02 05:51:35;;;;;;;22.23;12.23;;;10.30;86.70;;;8.81;100.00;96691.53;4870654;28;20375;-70
2022/11/02 05:54:01;;;;;;;15.57;9.93;;;10.30;87.30;;;8.80;100.00;96695.97;4877262;28;20044;-71
2022/11/02 05:56:27;;;;;;;12.43;8.70;;;10.30;87.60;;;8.82;100.00;96693.16;4854343;28;20353;-72
2022/11/02 05:58:54;;;;;;;13.75;8.43;;;10.30;87.60;;;8.85;100.00;96695.50;4858830;28;20188;-74
2022/11/02 06:01:20;;;;;;;11.10;6.90;;;10.40;87.50;;;8.85;100.00;96703.38;4859807;28;20569;-74
2022/11/02 06:03:46;;;;;;;10.25;6.20;;;10.40;87.50;;;8.86;100.00;96699.75;4873228;28;20331;-71
2022/11/02 06:06:12;;;;;;;13.75;6.30;;;10.40;87.40;;;8.87;100.00;96712.72;4856196;28;20373;-71
2022/11/02 06:08:39;;;;;;;9.35;5.25;;;10.30;87.30;;;8.85;100.00;96703.38;4875045;28;20580;-72
2022/11/02 06:11:10;;;;;;;10.77;5.68;;;10.40;87.20;;;8.84;100.00;96712.22;4860383;28;20730;-71
2022/11/02 06:13:36;;;;;;;;;;;10.30;87.30;;;8.82;100.00;96714.97;4867754;28;20344;-72
2022/11/02 06:16:03;;;;;;;10.20;6.07;;;10.30;87.40;;;8.81;100.00;96709.91;4892377;28;20229;-72
2022/11/02 06:18:30;;;;;;;11.40;6.15;;;10.30;87.50;;;8.82;100.00;96708.91;4855325;28;20403;-71
2022/11/02 06:21:00;;;;;;;10.77;5.70;;;10.30;87.50;;;8.83;100.00;96715.84;4858492;28;20498;-72
2022/11/02 06:23:26;;;;;;;9.82;5.93;;;10.30;87.60;;;8.84;100.00;96720.09;4841744;28;20312;-71
2022/11/02 06:25:54;;;;;;;9.13;6.32;;;10.40;87.60;;;8.85;100.00;96722.56;4851832;28;20691;-72
2022/11/02 06:28:20;;;;;;;12.55;6.40;;;10.40;87.50;;;8.87;100.00;96723.22;4870778;28;20407;-71
2022/11/02 06:30:49;;;;;;;12.02;6.47;;;10.40;87.50;;;8.90;100.00;96727.31;4883041;28;20218;-71
2022/11/02 06:33:16;;;;;;;9.25;6.50;;;10.40;87.40;;;8.91;100.00;96731.56;4859706;28;20474;-71
2022/11/02 06:35:50;;;;;;;13.02;6.75;;;10.50;87.40;;;8.94;100.00;96733.84;4870841;28;20371;-72
2022/11/02 06:38:16;;;;;;;11.23;5.85;;;10.60;87.10;;;8.97;100.00;96744.03;4857964;28;20367;-72
2022/11/02 06:41:05;;;;;;;8.70;5.65;;;10.60;86.70;;;9.00;100.00;96748.94;4861478;28;20424;-72
2022/11/02 06:43:32;;;;;;;12.77;6.05;;;10.60;86.60;;;9.00;100.00;96743.69;4865401;28;20416;-72
2022/11/02 06:45:59;;;;;;;13.70;5.68;;;10.60;86.70;;;9.04;100.00;96754.69;4861109;28;20486;-71
2022/11/02 06:48:25;;;;;;;13.13;6.25;;;10.70;86.80;;;9.06;100.00;96753.56;4855749;28;20609;-75
2022/11/02 06:50:52;;;;;;;9.65;5.97;;;10.70;86.70;;;9.09;100.00;96753.22;4887664;28;20707;-72
2022/11/02 06:53:18;;;;;;;11.88;5.53;;;10.70;86.70;;;9.12;100.00;96759.97;4890300;28;20378;-71
2022/11/02 06:55:44;;;;;;;10.95;6.03;;;10.80;86.90;;;9.17;100.00;96760.28;4855988;28;20798;-73
2022/11/02 06:58:10;;;;;;;9.13;5.85;;;10.80;86.90;;;9.21;100.00;96762.41;4879651;28;20669;-73
2022/11/02 07:00:37;;;;;;;14.82;5.95;;;10.90;86.80;;;9.29;100.00;96763.41;4857209;28;20049;-69
2022/11/02 07:03:05;;;;;;;12.27;5.90;;;11.10;86.70;;;9.37;100.00;96768.66;4873543;28;20291;-68
2022/11/02 07:05:32;;;;;;;10.57;6.00;;;11.10;86.30;;;9.46;100.00;96770.28;4888037;28;20450;-70
2022/11/02 07:07:58;;;;;;;8.00;5.32;;;11.30;86.00;;;9.56;100.00;96767.50;4875099;28;20344;-73
2022/11/02 07:10:24;;;;;;;9.60;5.78;;;11.50;85.80;;;9.65;100.00;96775.19;4868145;28;20788;-70
2022/11/02 07:12:54;;;;;;;11.38;5.75;;;11.60;85.30;;;9.78;100.00;96769.44;4849985;28;20336;-71
2022/11/02 07:15:21;;;;;;;8.50;5.22;;;11.90;84.90;;;9.93;100.00;96772.16;4859545;28;20372;-69
2022/11/02 07:17:47;;;;;;;10.32;5.53;;;12.10;84.10;;;10.08;100.00;96759.97;4872500;28;20326;-68
2022/11/02 07:20:13;;;;;;;10.63;5.63;;;12.50;83.00;;;10.24;100.00;96752.06;4857585;28;20364;-69
2022/11/02 07:22:40;;;;;;;10.38;5.57;;;12.70;82.30;;;10.40;100.00;96753.78;4864197;28;20327;-69
2022/11/02 07:25:06;;;;;;;10.52;5.00;;;13.10;81.00;;;10.59;100.00;96763.06;4871740;28;20454;-72
2022/11/02 07:27:40;;;;;;;13.65;5.07;;;13.40;79.90;;;10.77;100.00;96761.00;4875631;28;20296;-72
2022/11/02 07:30:07;;;;;;;8.25;4.85;;;13.70;78.90;;;10.94;100.00;96754.66;4857675;28;20759;-72
2022/11/02 07:32:43;;;;;;;8.73;5.60;;;14.00;77.90;;;11.14;100.00;96762.09;4876174;28;20485;-71
2022/11/02 07:35:11;;;;;;;10.05;6.90;;;14.20;77.20;;;11.32;100.00;96766.06;4876152;28;20407;-73
2022/11/02 07:37:37;;;;;;;9.75;7.75;;;14.50;76.30;;;11.50;100.00;96773.63;4858536;28;20344;-73
2022/11/02 07:40:05;;;;;;;12.48;7.28;;;14.60;75.70;;;11.69;100.00;96782.84;4858314;28;20356;-72
2022/11/02 07:42:31;;;;;;;12.30;5.38;;;14.80;75.20;;;11.89;100.00;96786.63;4856660;28;20308;-73
2022/11/02 07:44:57;;;;;;;7.18;4.53;;;15.10;74.70;;;12.13;100.00;96775.00;4854922;28;20215;-73
2022/11/02 07:47:24;;;;;;;7.10;4.60;;;15.40;73.90;;;12.36;100.00;96774.09;4840813;28;20423;-72
2022/11/02 07:49:50;;;;;;;6.75;4.63;;;15.70;72.90;;;12.57;100.00;96776.81;4838888;28;20490;-72
2022/11/02 07:52:16;;;;;;;7.60;4.40;;;15.60;72.30;;;12.72;100.00;96772.31;4856515;28;20341;-72
2022/11/02 07:54:42;;;;;;;8.85;3.97;;;15.40;72.50;;;12.82;100.00;96775.47;4866890;28;20369;-72
2022/11/02 07:57:08;;;;;;;12.15;6.68;;;15.60;72.20;;;12.98;100.00;96782.34;4843505;28;20252;-72
2022/11/02 07:59:35;;;;;;;8.68;4.80;;;15.90;71.50;;;13.09;100.00;96781.03;4841491;28;20695;-72
2022/11/02 08:02:02;;;;;;;9.30;6.00;;;15.70;71.30;;;13.15;100.00;96775.03;4842055;28;20319;-71
2022/11/02 08:04:28;;;;;;;11.35;8.00;;;15.60;72.00;;;13.18;100.00;96779.94;4855520;28;20502;-72
2022/11/02 08:06:56;;;;;;;16.00;12.18;;;15.60;72.40;;;13.27;100.00;96778.00;4877764;28;20773;-72
2022/11/02 08:09:22;;;;;;;10.13;5.03;;;16.10;71.50;;;13.41;100.00;96779.75;4856772;28;20361;-72
2022/11/02 08:11:48;;;;;;;6.97;4.30;;;16.40;70.30;;;13.59;100.00;96776.66;4839692;28;20189;-72
2022/11/02 08:14:15;;;;;;;8.07;4.30;;;16.60;69.10;;;13.70;100.00;96786.72;4840945;28;20455;-72
2022/11/02 08:16:41;;;;;;;6.70;4.00;;;16.40;69.70;;;13.76;100.00;96791.22;4839925;28;20322;-72
2022/11/02 08:19:07;;;;;;;6.43;3.95;;;16.30;69.90;;;13.78;100.00;96782.09;4858096;28;20365;-71
2022/11/02 08:21:33;;;;;;;10.35;3.95;;;16.10;70.70;;;13.82;100.00;96787.81;4856416;28;20344;-72
2022/11/02 08:24:09;;;;;;;7.10;4.05;;;16.10;71.40;;;13.87;100.00;96788.06;4855845;28;20364;-70
2022/11/02 08:26:41;;;;;;;8.45;3.70;;;16.10;71.60;;;13.94;100.00;96788.91;4897807;28;20356;-69
2022/11/02 08:29:07;;;;;;;7.28;3.97;;;16.20;71.70;;;13.96;100.00;96789.53;4872227;28;20448;-71
2022/11/02 08:31:33;;;;;;;7.03;3.70;;;16.10;71.00;;;13.96;100.00;96789.53;4880412;28;20672;-71
2022/11/02 08:33:59;;;;;;;8.25;3.90;;;16.10;71.30;;;13.96;100.00;96789.53;4865999;28;20479;-71
2022/11/02 08:36:25;;;;;;;6.72;3.60;;;16.20;71.00;;;13.99;100.00;96797.09;4886941;28;20453;-71
2022/11/02 08:38:51;;;;;;;6.88;3.75;;;16.30;70.30;;;14.00;100.00;96796.06;4856278;28;20572;-73
2022/11/02 08:41:17;;;;;;;7.80;4.00;;;16.20;69.60;;;13.97;100.00;96795.66;4856431;28;20318;-72
2022/11/02 08:43:43;;;;;;;10.27;3.95;;;16.10;69.10;;;13.93;100.00;96792.56;4859280;28;20435;-69
2022/11/02 08:46:09;;;;;;;5.75;4.10;;;16.10;69.70;;;13.93;100.00;96797.03;4853944;28;20365;-69
2022/11/02 08:48:36;;;;;;;8.15;3.78;;;16.10;69.60;;;13.94;100.00;96794.22;4852777;28;20505;-69
2022/11/02 08:51:04;;;;;;;8.15;3.95;;;16.30;69.00;;;13.97;100.00;96796.47;4854775;28;20387;-69
2022/11/02 08:53:30;;;;;;;9.38;3.53;;;16.30;70.00;;;13.99;100.00;96789.16;4873327;28;20800;-69
2022/11/02 08:55:59;;;;;;;7.32;3.78;;;16.10;69.50;;;13.97;100.00;96796.47;4867561;28;20376;-73
2022/11/02 08:58:25;;;;;;;9.68;4.00;;;16.00;69.90;;;13.99;100.00;96793.63;4853463;28;20368;-70
2022/11/02 09:00:54;;;;;;;9.50;5.55;;;16.00;69.70;;;13.97;100.00;96791.16;4869205;28;20502;-68
2022/11/02 09:03:23;;;;;;;8.07;4.72;;;16.00;70.30;;;14.03;100.00;96793.06;4851699;28;20414;-68
2022/11/02 09:05:49;;;;;;;7.40;3.95;;;16.40;69.20;;;14.12;100.00;96792.91;4861545;28;20694;-70
2022/11/02 09:08:18;;;;;;;9.05;3.38;;;16.50;69.40;;;14.19;100.00;96791.13;4855770;28;20411;-68
2022/11/02 09:10:46;;;;;;;7.65;4.00;;;16.40;69.30;;;14.23;100.00;96795.00;4855906;28;21557;-71
2022/11/02 09:13:13;;;;;;;8.68;3.90;;;16.40;69.30;;;14.26;100.00;96789.34;4856998;28;20577;-71
2022/11/02 09:15:39;;;;;;;7.15;3.60;;;16.30;70.60;;;14.29;100.00;96788.94;4839384;28;20304;-72
2022/11/02 09:18:06;;;;;;;7.13;3.65;;;16.30;70.10;;;14.28;100.00;96792.59;4839802;28;20404;-71
2022/11/02 09:20:32;;;;;;;7.60;3.15;;;16.20;69.40;;;14.26;100.00;96792.81;4853129;28;20431;-72
2022/11/02 09:22:59;;;;;;;4.57;3.00;;;16.10;69.90;;;14.26;100.00;96795.44;4888708;28;20773;-69
2022/11/02 09:25:25;;;;;;;7.57;2.95;;;16.10;70.30;;;14.26;100.00;96805.22;4861058;28;20513;-68
2022/11/02 09:27:53;;;;;;;6.88;2.72;;;16.10;71.00;;;14.25;100.00;96803.56;4877159;28;20284;-69
2022/11/02 09:30:19;;;;;;;7.03;2.30;;;16.10;70.50;;;14.26;100.00;96806.03;4877669;28;20385;-68
2022/11/02 09:32:56;;;;;;;4.63;1.88;;;16.30;69.00;;;14.35;100.00;96802.22;4865906;28;20590;-69
2022/11/02 09:35:23;;;;;;;9.63;2.28;;;16.50;69.10;;;14.47;100.00;96815.72;4851002;28;20321;-68
2022/11/02 09:37:49;;;;;;;6.55;1.90;;;16.80;67.50;;;14.51;100.00;96805.59;4878257;28;20219;-68
2022/11/02 09:40:21;;;;;;;5.13;1.88;;;16.50;66.20;;;14.55;100.00;96818.22;4863568;28;20411;-69
2022/11/02 09:43:19;;;;;;;4.80;2.30;;;16.60;67.80;;;14.62;100.00;96821.72;4855096;28;20697;-70
2022/11/02 09:46:00;;;;;;;6.53;2.17;;;16.60;68.00;;;14.65;100.00;96823.97;4870755;28;20336;-68
2022/11/02 09:49:08;;;;;;;8.45;2.40;;;16.60;67.60;;;14.67;99.59;96827.25;4879125;28;20379;-67
2022/11/02 09:51:45;;;;;;;3.60;1.98;;;16.70;67.00;;;14.68;99.37;96818.28;4862931;28;20352;-69
2022/11/02 09:54:34;;;;;;;4.78;1.92;;;16.70;66.50;;;14.80;99.62;96821.19;4876017;28;20474;-70
2022/11/02 09:57:26;;;;;;;9.23;2.15;;;17.10;66.20;;;15.00;99.79;96813.31;4871071;28;20333;-68
2022/11/02 09:59:52;;;;;;;6.78;2.10;;;18.80;63.20;;;15.55;100.00;96812.22;4853852;28;20319;-70
2022/11/02 10:03:28;;;;;;;6.05;1.70;;;23.00;50.10;;;16.68;93.03;96825.41;4837237;28;20487;-68
2022/11/02 10:06:29;;;;;;;5.72;1.80;;;26.50;41.60;;;17.85;87.86;96813.53;4865264;28;20351;-72
2022/11/02 10:09:27;;;;;;;9.00;2.28;;;28.80;35.60;;;19.00;83.03;96816.50;4856505;28;20334;-71
2022/11/02 10:12:08;;;;;;;5.47;1.67;;;30.70;33.10;;;19.89;81.57;96815.66;4871597;28;20497;-68
2022/11/02 10:14:38;;;;;;;8.02;1.85;;;29.40;33.50;;;20.32;82.96;96831.38;4899903;28;20464;-70
2022/11/02 10:17:21;;;;;;;4.47;1.50;;;26.80;37.80;;;20.46;73.28;96823.97;4848267;28;20507;-68
2022/11/02 10:19:54;;;;;;;5.97;1.95;;;25.30;39.70;;;20.42;72.57;96818.28;4866608;28;20486;-68
2022/11/02 10:22:22;;;;;;;7.13;2.83;;;24.10;42.50;;;20.27;75.51;96822.44;4880092;28;20406;-68
2022/11/02 10:24:48;;;;;;;5.22;2.10;;;23.30;44.40;;;20.05;74.63;96820.31;4850900;28;20395;-69
2022/11/02 10:27:37;;;;;;;7.47;1.95;;;23.10;45.20;;;20.02;69.98;96820.78;4851517;28;20373;-69
2022/11/02 10:30:19;;;;;;;4.88;1.60;;;23.60;45.50;;;19.96;69.66;96821.72;4849851;28;20349;-69
2022/11/02 10:32:47;;;;;;;6.13;1.50;;;23.60;44.70;;;19.93;72.05;96822.19;4847665;28;20626;-71
2022/11/02 10:35:27;;;;;;;5.55;1.50;;;23.30;44.30;;;19.83;67.26;96813.91;4847767;28;20426;-70
2022/11/02 10:38:15;;;;;;;6.10;1.58;;;22.60;45.40;;;19.77;65.80;96822.84;4869513;28;20396;-70
2022/11/02 10:41:15;;;;;;;7.50;1.50;;;22.80;45.10;;;19.72;67.65;96814.72;4870324;28;20923;-70
2022/11/02 10:44:20;;;;;;;4.13;1.23;;;23.00;45.50;;;19.73;68.22;96816.34;4906244;28;20333;-72
2022/11/02 10:47:01;;;;;;;6.15;1.50;;;22.70;46.10;;;19.49;65.92;96821.59;4898047;28;20486;-70
2022/11/02 10:50:02;;;;;;;5.95;1.50;;;21.60;46.90;;;19.09;65.87;96825.84;4876799;28;20463;-70